createdAt,value
2022-08-05T00:01:35.713Z,53.43
2022-08-05T00:04:08.194Z,54.02
2022-08-05T00:06:37.058Z,54.28
2022-08-05T00:09:12.938Z,54.93
2022-08-05T00:11:49.229Z,55.21
2022-08-05T00:14:26.482Z,55.07
2022-08-05T00:16:56.331Z,55.26
2022-08-05T00:19:33.814Z,56.10
2022-08-05T00:22:11.322Z,56.37
2022-08-05T00:24:42.388Z,56.89
2022-08-05T00:27:14.035Z,57.12
2022-08-05T00:29:45.252Z,57.53
2022-08-05T00:32:15.415Z,57.12
2022-08-05T00:35:05.043Z,57.75
2022-08-05T00:37:51.158Z,57.69
2022-08-05T00:40:27.004Z,57.73
2022-08-05T00:43:01.355Z,58.55
2022-08-05T00:45:43.186Z,58.55
2022-08-05T00:48:27.407Z,58.92
2022-08-05T00:50:59.744Z,59.37
2022-08-05T00:54:01.456Z,59.74
2022-08-05T00:56:25.826Z,60.71
2022-08-05T00:58:55.908Z,61.22
2022-08-05T01:01:42.953Z,61.22
2022-08-05T01:04:15.866Z,60.94
2022-08-05T01:06:48.843Z,61.32
2022-08-05T01:09:20.057Z,61.56
2022-08-05T01:12:00.730Z,62.27
2022-08-05T01:14:48.693Z,62.62
2022-08-05T01:17:32.696Z,62.62
2022-08-05T01:20:35.729Z,62.98
2022-08-05T01:23:58.092Z,63.30
2022-08-05T01:26:32.828Z,63.78
2022-08-05T01:29:11.951Z,64.00
2022-08-05T01:31:46.809Z,64.24
2022-08-05T01:34:27.284Z,64.04
2022-08-05T01:37:05.446Z,64.64
2022-08-05T01:39:46.356Z,64.38
2022-08-05T01:42:18.670Z,64.64
2022-08-05T01:44:54.172Z,64.31
2022-08-05T01:47:32.538Z,64.59
2022-08-05T01:50:15.408Z,64.62
2022-08-05T01:52:50.158Z,64.77
2022-08-05T01:55:22.127Z,65.35
2022-08-05T01:58:12.975Z,65.48
2022-08-05T02:00:47.171Z,65.11
2022-08-05T02:03:32.014Z,65.48
2022-08-05T02:06:23.978Z,66.00
2022-08-05T02:08:58.563Z,65.90
2022-08-05T02:11:33.331Z,65.57
2022-08-05T02:14:14.437Z,66.13
2022-08-05T02:17:06.483Z,66.93
2022-08-05T02:19:47.422Z,66.50
2022-08-05T02:22:32.208Z,66.81
2022-08-05T02:25:12.627Z,66.40
2022-08-05T02:27:58.650Z,66.65
2022-08-05T02:30:38.115Z,67.36
2022-08-05T02:33:24.331Z,67.20
2022-08-05T02:36:06.612Z,68.01
2022-08-05T02:38:38.008Z,67.69
2022-08-05T02:41:17.198Z,68.24
2022-08-05T02:44:06.495Z,68.37
2022-08-05T02:46:53.721Z,68.47
2022-08-05T02:49:35.945Z,68.90
2022-08-05T02:52:11.486Z,68.94
2022-08-05T02:54:50.704Z,69.07
2022-08-05T02:58:19.849Z,68.94
2022-08-05T03:00:13.463Z,69.55
2022-08-05T03:02:46.490Z,69.46
2022-08-05T03:05:16.484Z,69.87
2022-08-05T03:08:04.551Z,69.88
2022-08-05T03:10:33.669Z,70.52
2022-08-05T03:15:29.431Z,70.95
2022-08-05T03:17:59.342Z,71.13
2022-08-05T03:20:27.957Z,71.80
2022-08-05T03:22:58.028Z,71.60
2022-08-05T03:25:33.700Z,71.90
2022-08-05T03:28:18.790Z,72.07
2022-08-05T03:30:49.306Z,72.27
2022-08-05T03:33:18.409Z,72.42
2022-08-05T03:35:48.336Z,72.38
2022-08-05T03:38:32.635Z,72.34
2022-08-05T03:41:08.130Z,72.75
2022-08-05T03:44:08.598Z,72.98
2022-08-05T03:46:29.501Z,73.05
2022-08-05T03:48:58.881Z,73.01
2022-08-05T03:52:38.733Z,72.56
2022-08-05T03:56:01.637Z,72.50
2022-08-05T03:57:46.828Z,72.28
2022-08-05T04:00:18.208Z,72.41
2022-08-05T04:02:57.619Z,72.40
2022-08-05T04:05:33.228Z,72.37
2022-08-05T04:08:29.928Z,72.59
2022-08-05T04:10:54.294Z,72.24
2022-08-05T04:13:50.590Z,72.49
2022-08-05T04:16:15.595Z,72.09
2022-08-05T04:18:54.115Z,72.37
2022-08-05T04:22:09.577Z,72.24
2022-08-05T04:24:19.378Z,72.18
2022-08-05T04:26:51.367Z,71.99
2022-08-05T04:29:19.900Z,72.06
2022-08-05T04:31:49.619Z,72.05
2022-08-05T04:34:32.473Z,71.99
2022-08-05T04:37:03.132Z,71.70
2022-08-05T04:39:32.418Z,71.62
2022-08-05T04:42:04.017Z,71.18
2022-08-05T04:44:32.441Z,71.24
2022-08-05T04:47:09.483Z,71.01
2022-08-05T04:50:01.402Z,70.65
2022-08-05T04:52:28.551Z,70.35
2022-08-05T04:54:57.959Z,69.73
2022-08-05T04:57:28.606Z,69.08
2022-08-05T04:59:58.982Z,69.27
2022-08-05T05:02:42.022Z,69.10
2022-08-05T05:05:25.978Z,69.65
2022-08-05T05:08:01.517Z,69.38
2022-08-05T05:10:35.444Z,68.65
2022-08-05T05:13:04.585Z,68.90
2022-08-05T05:15:56.494Z,68.94
2022-08-05T05:18:28.001Z,69.14
2022-08-05T05:20:59.464Z,70.62
2022-08-05T05:23:39.485Z,70.26
2022-08-05T05:26:17.299Z,70.43
2022-08-05T05:28:45.824Z,70.81
2022-08-05T05:31:14.585Z,71.40
2022-08-05T05:33:59.235Z,70.89
2022-08-05T05:36:29.999Z,71.25
2022-08-05T05:38:59.035Z,71.34
2022-08-05T05:41:40.073Z,71.39
2022-08-05T05:44:36.091Z,71.12
2022-08-05T05:47:03.968Z,71.02
2022-08-05T05:49:33.551Z,70.60
2022-08-05T05:52:07.436Z,69.70
2022-08-05T05:54:50.196Z,69.60
2022-08-05T05:57:20.566Z,69.04
2022-08-05T05:59:49.241Z,67.94
2022-08-05T06:02:32.565Z,67.27
2022-08-05T06:05:10.463Z,66.32
2022-08-05T06:07:57.885Z,65.63
2022-08-05T06:10:36.733Z,64.80
2022-08-05T06:13:12.907Z,63.95
2022-08-05T06:16:31.005Z,63.34
2022-08-05T06:18:31.400Z,63.49
2022-08-05T06:21:00.601Z,63.63
2022-08-05T06:23:43.468Z,64.31
2022-08-05T06:26:21.601Z,65.06
2022-08-05T06:28:52.635Z,65.46
2022-08-05T06:31:22.073Z,66.61
2022-08-05T06:34:06.985Z,66.73
2022-08-05T06:36:53.466Z,67.77
2022-08-05T06:39:27.365Z,69.69
2022-08-05T06:42:01.285Z,71.81
2022-08-05T06:44:32.449Z,72.53
2022-08-05T06:47:02.288Z,73.02
2022-08-05T06:50:02.042Z,73.33
2022-08-05T06:52:36.745Z,74.24
2022-08-05T06:55:08.082Z,74.31
2022-08-05T06:57:57.900Z,75.13
2022-08-05T07:00:25.511Z,75.21
2022-08-05T07:02:54.620Z,75.22
2022-08-05T07:05:31.823Z,74.93
2022-08-05T07:08:05.993Z,74.65
2022-08-05T07:10:39.544Z,74.02
2022-08-05T07:13:57.647Z,73.11
2022-08-05T07:17:59.725Z,72.96
2022-08-05T07:22:28.102Z,73.00
2022-08-05T07:25:23.584Z,73.28
2022-08-05T07:27:59.531Z,73.55
2022-08-05T07:30:38.339Z,73.63
2022-08-05T07:33:16.825Z,73.74
2022-08-05T07:36:03.258Z,74.15
2022-08-05T07:38:43.131Z,73.66
2022-08-05T07:42:07.927Z,72.17
2022-08-05T07:44:18.824Z,71.37
2022-08-05T07:46:49.317Z,69.92
2022-08-05T07:49:19.209Z,69.28
2022-08-05T07:51:54.309Z,69.36
2022-08-05T07:54:31.082Z,69.21
2022-08-05T07:57:16.706Z,69.57
2022-08-05T07:59:51.515Z,69.35
2022-08-05T08:02:26.677Z,69.19
2022-08-05T08:05:00.464Z,68.60
2022-08-05T08:07:39.268Z,68.12
2022-08-05T08:10:09.079Z,67.26
2022-08-05T08:12:49.227Z,66.73
2022-08-05T08:16:33.845Z,66.16
2022-08-05T08:18:13.707Z,66.03
2022-08-05T08:21:00.392Z,65.65
2022-08-05T08:24:01.968Z,65.23
2022-08-05T08:26:29.468Z,64.91
2022-08-05T08:29:21.823Z,64.81
2022-08-05T08:31:48.276Z,65.00
2022-08-05T08:34:18.693Z,64.89
2022-08-05T08:37:02.184Z,64.12
2022-08-05T08:39:37.451Z,63.67
2022-08-05T08:42:10.761Z,61.79
2022-08-05T08:45:25.370Z,61.37
2022-08-05T08:48:12.712Z,63.14
2022-08-05T08:51:03.751Z,63.10
2022-08-05T08:53:32.292Z,62.36
2022-08-05T08:56:06.166Z,62.23
2022-08-05T08:58:43.437Z,62.88
2022-08-05T09:01:18.012Z,62.88
2022-08-05T09:03:55.207Z,64.47
2022-08-05T09:06:27.997Z,64.95
2022-08-05T09:09:02.250Z,64.68
2022-08-05T09:11:51.698Z,64.16
2022-08-05T09:14:56.855Z,63.01
2022-08-05T09:17:41.041Z,61.39
2022-08-05T09:20:04.893Z,60.92
2022-08-05T09:23:19.494Z,60.76
2022-08-05T09:26:02.374Z,59.61
2022-08-05T09:28:34.023Z,56.71
2022-08-05T09:31:22.570Z,56.77
2022-08-05T09:34:01.702Z,57.55
2022-08-05T09:36:55.251Z,58.36
2022-08-05T09:39:39.530Z,58.56
2022-08-05T09:42:24.522Z,57.40
2022-08-05T09:45:17.493Z,57.39
2022-08-05T09:47:55.227Z,57.54
2022-08-05T09:50:44.086Z,58.74
2022-08-05T09:53:22.792Z,60.00
2022-08-05T09:56:12.720Z,60.45
2022-08-05T09:58:42.471Z,59.82
2022-08-05T10:01:22.668Z,59.42
2022-08-05T10:04:29.330Z,59.05
2022-08-05T10:07:01.690Z,58.46
2022-08-05T10:10:04.421Z,57.74
2022-08-05T10:12:51.469Z,57.29
2022-08-05T10:15:28.785Z,57.21
2022-08-05T10:18:17.369Z,57.49
2022-08-05T10:20:50.992Z,57.52
2022-08-05T10:23:55.747Z,57.00
2022-08-05T10:26:17.753Z,58.62
2022-08-05T10:28:47.344Z,59.57
2022-08-05T10:32:49.686Z,60.13
2022-08-05T10:34:07.964Z,58.70
2022-08-05T10:36:42.220Z,59.06
2022-08-05T10:39:24.890Z,59.65
2022-08-05T10:42:19.043Z,59.58
2022-08-05T10:45:01.340Z,59.41
2022-08-05T10:47:41.129Z,58.77
2022-08-05T10:50:35.219Z,58.57
2022-08-05T10:53:05.510Z,58.55
2022-08-05T10:56:03.468Z,58.81
2022-08-05T10:58:22.488Z,58.60
2022-08-05T11:01:08.660Z,59.01
2022-08-05T11:04:15.104Z,57.81
2022-08-05T11:07:01.623Z,58.14
2022-08-05T11:09:46.571Z,57.75
2022-08-05T11:12:54.361Z,57.65
2022-08-05T11:16:00.155Z,57.14
2022-08-05T11:18:30.174Z,58.00
2022-08-05T11:21:02.153Z,57.05
2022-08-05T11:23:33.423Z,56.88
2022-08-05T11:26:28.076Z,56.54
2022-08-05T11:29:02.411Z,57.21
2022-08-05T11:31:54.064Z,57.24
2022-08-05T11:34:50.963Z,56.55
2022-08-05T11:38:30.351Z,56.23
2022-08-05T11:41:35.359Z,55.61
2022-08-05T11:44:05.129Z,55.90
2022-08-05T11:47:09.197Z,56.66
2022-08-05T11:49:37.382Z,55.31
2022-08-05T11:52:11.547Z,55.19
2022-08-05T11:54:41.668Z,55.18
2022-08-05T11:57:25.679Z,55.63
2022-08-05T11:59:56.067Z,54.56
2022-08-05T12:02:32.970Z,53.63
2022-08-05T12:05:07.042Z,53.55
2022-08-05T12:08:03.226Z,54.82
2022-08-05T12:10:43.287Z,53.83
2022-08-05T12:13:48.422Z,53.53
2022-08-05T12:16:14.674Z,52.38
2022-08-05T12:18:48.960Z,52.01
2022-08-05T12:21:29.789Z,51.99
2022-08-05T12:24:11.753Z,52.94
2022-08-05T12:26:45.342Z,53.65
2022-08-05T12:29:22.998Z,53.78
2022-08-05T12:31:55.479Z,54.09
2022-08-05T12:34:30.239Z,55.71
2022-08-05T12:37:10.542Z,55.97
2022-08-05T12:39:42.245Z,54.54
2022-08-05T12:42:18.785Z,55.01
2022-08-05T12:44:47.960Z,55.13
2022-08-05T12:47:30.500Z,54.72
2022-08-05T12:50:03.228Z,54.87
2022-08-05T12:52:41.894Z,54.47
2022-08-05T12:55:26.564Z,54.10
2022-08-05T12:58:52.342Z,53.52
2022-08-05T13:02:01.083Z,53.27
2022-08-05T13:03:42.805Z,52.00
2022-08-05T13:06:18.025Z,52.86
2022-08-05T13:08:52.699Z,50.15
2022-08-05T13:12:01.553Z,51.08
2022-08-05T13:14:35.943Z,50.89
2022-08-05T13:17:20.524Z,50.45
2022-08-05T13:20:16.515Z,50.53
2022-08-05T13:22:53.513Z,52.34
2022-08-05T13:25:52.343Z,52.35
2022-08-05T13:28:10.806Z,52.81
2022-08-05T13:30:39.406Z,53.08
2022-08-05T13:33:07.861Z,50.47
2022-08-05T13:35:47.544Z,53.06
2022-08-05T13:38:30.782Z,52.87
2022-08-05T13:41:03.309Z,52.41
2022-08-05T13:43:43.258Z,52.69
2022-08-05T13:46:12.879Z,52.35
2022-08-05T13:48:58.390Z,50.21
2022-08-05T13:51:40.352Z,47.75
2022-08-05T13:54:15.516Z,46.13
2022-08-05T13:56:51.435Z,46.24
2022-08-05T13:59:27.294Z,45.32
2022-08-05T14:01:59.175Z,45.91
2022-08-05T14:05:00.656Z,47.31
2022-08-05T14:07:59.576Z,47.04
2022-08-05T14:10:28.168Z,46.37
2022-08-05T14:12:57.668Z,48.48
2022-08-05T14:16:05.045Z,46.44
2022-08-05T14:18:22.933Z,45.99
2022-08-05T14:20:52.923Z,46.89
2022-08-05T14:23:25.208Z,46.59
2022-08-05T14:25:58.551Z,46.45
2022-08-05T14:28:31.412Z,46.34
2022-08-05T14:31:01.602Z,47.21
2022-08-05T14:33:32.522Z,46.67
2022-08-05T14:36:21.494Z,46.25
2022-08-05T14:38:51.640Z,46.59
2022-08-05T14:41:19.837Z,46.36
2022-08-05T14:43:59.084Z,47.03
2022-08-05T14:46:31.742Z,47.26
2022-08-05T14:49:07.806Z,47.69
2022-08-05T14:51:42.518Z,47.37
2022-08-05T14:54:28.785Z,47.78
2022-08-05T14:56:59.521Z,48.54
2022-08-05T14:59:29.143Z,48.15
2022-08-05T15:01:58.348Z,48.31
2022-08-05T15:04:29.004Z,47.85
2022-08-05T15:06:57.506Z,47.66
2022-08-05T15:09:51.574Z,48.72
2022-08-05T15:12:16.897Z,46.95
2022-08-05T15:14:49.443Z,46.94
2022-08-05T15:17:45.712Z,47.66
2022-08-05T15:20:15.616Z,48.09
2022-08-05T15:22:54.113Z,48.09
2022-08-05T15:25:51.695Z,52.85
2022-08-05T15:28:14.745Z,55.97
2022-08-05T15:30:45.778Z,57.57
2022-08-05T15:33:56.903Z,58.49
2022-08-05T15:36:05.796Z,60.02
2022-08-05T15:38:46.454Z,60.60
2022-08-05T15:41:22.412Z,61.93
2022-08-05T15:43:52.548Z,63.59
2022-08-05T15:46:24.855Z,63.99
2022-08-05T15:49:00.584Z,65.20
2022-08-05T15:52:13.574Z,66.22
2022-08-05T15:54:34.419Z,66.44
2022-08-05T15:57:03.854Z,67.06
2022-08-05T15:59:37.057Z,68.03
2022-08-05T16:02:09.567Z,68.91
2022-08-05T16:04:43.459Z,68.96
2022-08-05T16:07:13.364Z,69.69
2022-08-05T16:09:43.600Z,70.69
2022-08-05T16:12:12.237Z,71.08
2022-08-05T16:14:40.640Z,70.92
2022-08-05T16:17:09.454Z,71.76
2022-08-05T16:20:05.378Z,71.69
2022-08-05T16:22:27.482Z,71.95
2022-08-05T16:25:05.283Z,72.34
2022-08-05T16:28:00.316Z,72.89
2022-08-05T16:30:29.889Z,73.44
2022-08-05T16:33:00.858Z,73.47
2022-08-05T16:35:33.541Z,73.38
2022-08-05T16:38:18.713Z,73.49
2022-08-05T16:40:55.559Z,73.52
2022-08-05T16:43:36.222Z,73.80
2022-08-05T16:46:23.807Z,72.93
2022-08-05T16:48:53.379Z,71.78
2022-08-05T16:51:24.260Z,70.32
2022-08-05T16:54:04.019Z,69.47
2022-08-05T16:56:41.532Z,69.32
2022-08-05T16:59:11.864Z,69.27
2022-08-05T17:01:53.028Z,69.30
2022-08-05T17:04:27.662Z,69.30
2022-08-05T17:07:01.874Z,69.73
2022-08-05T17:09:56.087Z,69.36
2022-08-05T17:12:22.713Z,69.66
2022-08-05T17:15:11.691Z,69.60
2022-08-05T17:17:55.186Z,69.78
2022-08-05T17:20:25.050Z,69.79
2022-08-05T17:22:55.784Z,70.18
2022-08-05T17:25:33.720Z,69.69
2022-08-05T17:28:09.809Z,69.41
2022-08-05T17:30:42.449Z,68.71
2022-08-05T17:33:11.143Z,68.85
2022-08-05T17:36:08.081Z,68.61
2022-08-05T17:38:28.267Z,68.38
2022-08-05T17:40:56.714Z,68.02
2022-08-05T17:43:46.857Z,67.87
2022-08-05T17:46:13.956Z,67.82
2022-08-05T17:48:43.229Z,67.89
2022-08-05T17:51:13.466Z,67.88
2022-08-05T17:53:50.816Z,67.85
2022-08-05T17:56:23.104Z,68.29
2022-08-05T17:58:57.055Z,68.70
2022-08-05T18:01:25.723Z,69.01
2022-08-05T18:03:59.804Z,69.24
2022-08-05T18:06:33.275Z,68.67
2022-08-05T18:09:03.728Z,68.76
2022-08-05T18:11:32.996Z,68.55
2022-08-05T18:14:07.452Z,68.33
2022-08-05T18:16:47.009Z,68.28
2022-08-05T18:19:22.831Z,68.28
2022-08-05T18:22:09.823Z,67.93
2022-08-05T18:24:40.423Z,68.05
2022-08-05T18:27:18.115Z,68.10
2022-08-05T18:29:53.524Z,67.79
2022-08-05T18:32:28.033Z,68.21
2022-08-05T18:34:57.818Z,68.17
2022-08-05T18:37:33.689Z,68.21
2022-08-05T18:41:50.932Z,68.49
2022-08-05T18:42:58.527Z,68.61
2022-08-05T18:45:41.578Z,68.49
2022-08-05T18:48:11.493Z,68.60
2022-08-05T18:52:06.709Z,68.08
2022-08-05T18:53:52.256Z,68.57
2022-08-05T18:56:21.822Z,68.23
2022-08-05T18:58:55.018Z,68.00
2022-08-05T19:01:47.611Z,67.76
2022-08-05T19:04:24.078Z,67.47
2022-08-05T19:06:53.511Z,66.59
2022-08-05T19:09:22.365Z,66.46
2022-08-05T19:11:59.600Z,66.40
2022-08-05T19:14:52.081Z,65.78
2022-08-05T19:17:19.123Z,65.46
2022-08-05T19:19:48.479Z,65.14
2022-08-05T19:22:17.857Z,64.80
2022-08-05T19:24:54.274Z,64.47
2022-08-05T19:27:30.449Z,64.34
2022-08-05T19:29:59.336Z,64.20
2022-08-05T19:32:28.282Z,64.25
2022-08-05T19:35:00.522Z,65.07
2022-08-05T19:38:04.472Z,64.58
2022-08-05T19:40:24.368Z,64.40
2022-08-05T19:43:04.913Z,64.27
2022-08-05T19:45:37.005Z,63.88
2022-08-05T19:48:06.711Z,64.04
2022-08-05T19:50:43.589Z,65.44
2022-08-05T19:53:12.480Z,66.21
2022-08-05T19:56:15.093Z,67.53
2022-08-05T19:58:30.174Z,69.50
2022-08-05T20:00:59.002Z,70.32
2022-08-05T20:03:37.973Z,71.30
2022-08-05T20:06:14.832Z,70.21
2022-08-05T20:08:47.445Z,70.62
2022-08-05T20:11:17.924Z,69.91
2022-08-05T20:13:58.110Z,68.98
2022-08-05T20:16:36.754Z,68.99
2022-08-05T20:19:05.874Z,70.04
2022-08-05T20:21:35.380Z,69.13
2022-08-05T20:24:06.894Z,69.62
2022-08-05T20:26:35.426Z,70.42
2022-08-05T20:29:03.895Z,70.81
2022-08-05T20:31:42.929Z,70.08
2022-08-05T20:34:20.792Z,70.28
2022-08-05T20:36:49.425Z,70.49
2022-08-05T20:39:18.776Z,70.04
2022-08-05T20:41:48.230Z,70.13
2022-08-05T20:44:30.363Z,69.92
2022-08-05T20:47:01.656Z,71.66
2022-08-05T20:49:37.804Z,73.22
2022-08-05T20:52:08.478Z,74.62
2022-08-05T20:54:55.553Z,74.90
2022-08-05T20:57:43.850Z,75.50
2022-08-05T21:00:40.522Z,75.80
2022-08-05T21:03:07.454Z,76.69
2022-08-05T21:05:53.708Z,77.00
2022-08-05T21:08:26.921Z,77.37
2022-08-05T21:11:12.701Z,77.54
2022-08-05T21:13:56.367Z,77.89
2022-08-05T21:16:30.799Z,77.97
2022-08-05T21:19:01.687Z,77.29
2022-08-05T21:21:44.058Z,77.32
2022-08-05T21:24:19.520Z,76.26
2022-08-05T21:26:53.426Z,76.61
2022-08-05T21:29:31.373Z,75.75
2022-08-05T21:32:01.272Z,75.96
2022-08-05T21:34:31.655Z,76.66
2022-08-05T21:37:01.669Z,75.45
2022-08-05T21:39:30.372Z,75.55
2022-08-05T21:42:03.095Z,75.63
2022-08-05T21:44:32.501Z,75.19
2022-08-05T21:47:01.346Z,75.07
2022-08-05T21:49:48.485Z,74.43
2022-08-05T21:52:27.101Z,74.32
2022-08-05T21:55:06.176Z,74.31
2022-08-05T21:57:42.581Z,73.82
2022-08-05T22:00:12.297Z,73.49
2022-08-05T22:02:41.642Z,73.15
2022-08-05T22:05:12.399Z,71.76
2022-08-05T22:07:59.082Z,70.95
2022-08-05T22:10:30.883Z,70.53
2022-08-05T22:13:09.300Z,70.46
2022-08-05T22:16:01.061Z,70.16
2022-08-05T22:18:36.356Z,71.06
2022-08-05T22:21:18.828Z,70.94
2022-08-05T22:24:09.160Z,71.47
2022-08-05T22:26:59.248Z,72.01
2022-08-05T22:29:30.902Z,71.57
2022-08-05T22:32:03.334Z,71.72
2022-08-05T22:34:32.708Z,71.98
2022-08-05T22:37:03.873Z,72.09
2022-08-05T22:39:34.502Z,71.98
2022-08-05T22:42:12.428Z,72.13
2022-08-05T22:44:53.670Z,72.25
2022-08-05T22:47:29.464Z,72.60
2022-08-05T22:50:21.399Z,72.75
2022-08-05T22:52:49.475Z,73.22
2022-08-05T22:55:21.475Z,72.58
2022-08-05T22:58:35.411Z,72.52
2022-08-05T23:01:04.919Z,72.77
2022-08-05T23:03:58.860Z,72.43
2022-08-05T23:06:26.613Z,72.38
2022-08-05T23:08:57.398Z,72.59
2022-08-05T23:11:46.687Z,71.93
2022-08-05T23:14:22.682Z,72.24
2022-08-05T23:17:24.584Z,72.65
2022-08-05T23:20:04.055Z,72.53
2022-08-05T23:22:34.004Z,72.74
2022-08-05T23:25:05.017Z,71.85
2022-08-05T23:27:42.360Z,72.20
2022-08-05T23:30:27.119Z,72.08
2022-08-05T23:32:57.773Z,72.47
2022-08-05T23:35:28.635Z,72.40
2022-08-05T23:38:03.115Z,71.93
2022-08-05T23:40:33.046Z,71.79
2022-08-05T23:43:02.907Z,71.95
2022-08-05T23:45:51.614Z,72.20
2022-08-05T23:48:20.227Z,71.78
2022-08-05T23:50:49.183Z,71.22
2022-08-05T23:53:22.805Z,70.58
2022-08-05T23:55:52.020Z,68.81
2022-08-05T23:58:31.794Z,68.68
